Time;durP1;ratioP1;P1;durP2;ratioP2;P2;SDS_P1;SDS_P2;PMS_P1;PMS_P2;Temp;Humidity;BMP_temperature;BMP_pressure;BME280_temperature;BME280_humidity;BME280_pressure;Samples;Min_cycle;Max_cycle;Signal;HPM_P1;HPM_P2
2022/10/14 00:02:11;;;;;;;5.72;3.58;;;;;;;14.01;48.34;95251.84;5085405;28;20208;-64
2022/10/14 00:05:02;;;;;;;7.47;3.15;;;;;;;14.01;48.22;95244.72;5085508;28;20244;-65
2022/10/14 00:07:27;;;;;;;4.45;3.15;;;;;;;14.01;48.66;95250.00;5083843;28;20314;-64
2022/10/14 00:09:52;;;;;;;3.63;3.33;;;;;;;14.02;48.26;95251.66;5080808;28;20244;-65
2022/10/14 00:12:18;;;;;;;5.60;3.20;;;;;;;13.94;48.77;95245.56;5087155;28;20999;-64
2022/10/14 00:14:43;;;;;;;4.45;2.63;;;;;;;13.87;48.68;95235.66;5082850;28;20200;-64
2022/10/14 00:17:09;;;;;;;4.68;2.95;;;;;;;13.93;48.96;95236.81;5086657;28;20203;-64
2022/10/14 00:19:34;;;;;;;3.50;2.97;;;;;;;13.90;49.17;95237.16;5085637;28;20183;-63
2022/10/14 00:22:00;;;;;;;8.02;3.30;;;;;;;13.95;49.06;95236.63;5085397;28;20204;-64
2022/10/14 00:24:25;;;;;;;5.18;3.17;;;;;;;13.84;49.05;95229.84;5084907;28;20183;-63
2022/10/14 00:26:50;;;;;;;3.95;2.92;;;;;;;13.78;49.50;95219.97;5081374;28;20188;-63
2022/10/14 00:29:17;;;;;;;3.22;2.85;;;;;;;13.87;49.71;95232.16;5083913;28;20190;-63
2022/10/14 00:31:43;;;;;;;4.43;3.10;;;;;;;13.85;49.81;95232.34;5085403;28;20181;-63
2022/10/14 00:34:11;;;;;;;4.93;2.72;;;;;;;13.92;49.92;95229.84;5078737;28;20181;-63
2022/10/14 00:36:40;;;;;;;3.08;2.58;;;;;;;13.86;50.18;95236.63;5080329;28;20234;-64
2022/10/14 00:39:05;;;;;;;2.92;2.42;;;;;;;13.79;50.02;95227.75;5086068;28;20193;-64
2022/10/14 00:41:33;;;;;;;4.78;2.55;;;;;;;13.82;50.58;95237.13;5079352;28;20187;-63
2022/10/14 00:44:04;;;;;;;4.40;2.50;;;;;;;13.78;50.52;95223.44;5086518;28;20208;-63
2022/10/14 00:46:32;;;;;;;5.63;2.97;;;;;;;13.87;50.68;95230.38;5080864;28;20191;-62
2022/10/14 00:49:02;;;;;;;3.97;2.58;;;;;;;13.77;50.86;95236.81;5083728;28;20198;-63
2022/10/14 00:51:27;;;;;;;3.88;2.88;;;;;;;13.85;51.22;95228.88;5086112;28;20187;-63
2022/10/14 00:53:54;;;;;;;3.33;2.60;;;;;;;13.76;51.32;95229.88;5084841;28;20192;-63
2022/10/14 00:56:23;;;;;;;2.90;2.13;;;;;;;13.77;51.01;95223.59;5087824;28;20358;-63
2022/10/14 00:58:49;;;;;;;5.70;2.60;;;;;;;13.75;51.51;95217.66;5083819;28;20204;-63
2022/10/14 01:01:15;;;;;;;3.03;2.35;;;;;;;13.68;51.82;95223.63;5081461;28;20203;-62
2022/10/14 01:03:41;;;;;;;3.03;2.22;;;;;;;13.59;52.11;95214.03;5086490;28;20235;-62
2022/10/14 01:06:35;;;;;;;3.92;2.35;;;;;;;13.60;52.07;95212.19;5049440;28;20710;-63
2022/10/14 01:09:18;;;;;;;5.65;2.20;;;;;;;13.56;52.54;95209.06;5085827;28;20267;-63
2022/10/14 01:11:49;;;;;;;3.65;2.00;;;;;;;13.48;52.75;95205.59;5087319;28;20207;-63
2022/10/14 01:14:30;;;;;;;2.80;2.03;;;;;;;13.54;52.82;95204.94;5083436;28;20245;-63
2022/10/14 01:17:46;;;;;;;2.72;1.90;;;;;;;13.68;52.47;95207.75;5078820;28;20199;-63
2022/10/14 01:20:30;;;;;;;5.07;1.80;;;;;;;13.67;52.61;95195.53;5007494;28;20203;-62
2022/10/14 01:23:03;;;;;;;2.60;1.98;;;;;;;13.51;53.04;95182.31;5023402;28;20222;-63
2022/10/14 01:25:34;;;;;;;3.33;2.05;;;;;;;13.64;52.68;95189.75;5012167;28;20182;-63
2022/10/14 01:28:22;;;;;;;2.45;2.10;;;;;;;13.66;52.71;95198.34;5011416;28;20233;-63
2022/10/14 01:30:52;;;;;;;3.30;2.10;;;;;;;13.49;53.07;95192.22;5027215;28;20229;-63
2022/10/14 01:33:39;;;;;;;3.30;1.55;;;;;;;13.56;53.04;95180.00;5044530;28;20174;-62
2022/10/14 01:36:16;;;;;;;2.70;1.90;;;;;;;13.45;53.65;95181.16;5007899;28;20198;-62
2022/10/14 01:39:32;;;;;;;1.70;1.60;;;;;;;13.48;53.36;95185.28;5042886;28;20210;-63
2022/10/14 01:42:08;;;;;;;4.95;1.88;;;;;;;13.53;53.57;95192.75;4940591;28;20234;-64
2022/10/14 01:44:37;;;;;;;3.42;1.92;;;;;;;13.47;54.22;95173.06;4937595;28;20195;-64
2022/10/14 01:47:04;;;;;;;2.85;1.80;;;;;;;13.35;53.98;95177.03;4939506;28;20193;-64
2022/10/14 01:49:45;;;;;;;3.13;1.92;;;;;;;13.42;54.79;95173.59;4937472;29;20208;-64
2022/10/14 01:52:18;;;;;;;4.43;1.70;;;;;;;13.41;54.18;95171.91;4937541;29;20209;-65
2022/10/14 01:54:47;;;;;;;4.47;1.98;;;;;;;13.45;54.58;95180.34;4966737;28;20285;-63
2022/10/14 01:57:19;;;;;;;4.28;1.90;;;;;;;13.32;55.16;95180.00;4999976;28;20253;-64
2022/10/14 01:59:45;;;;;;;4.35;1.40;;;;;;;13.38;54.73;95169.59;5009743;28;20475;-65
2022/10/14 02:02:12;;;;;;;3.30;1.88;;;;;;;13.44;55.15;95178.69;5020048;28;20216;-65
2022/10/14 02:04:37;;;;;;;3.22;1.40;;;;;;;13.39;55.32;95173.06;5014058;28;20198;-63
2022/10/14 02:07:24;;;;;;;2.30;1.83;;;;;;;13.47;55.28;95181.00;5017031;28;20329;-64
2022/10/14 02:09:59;;;;;;;4.60;1.70;;;;;;;13.42;55.21;95180.69;5014259;28;20292;-64
2022/10/14 02:12:43;;;;;;;2.25;1.50;;;;;;;13.41;55.59;95181.66;5012286;28;20198;-64
2022/10/14 02:15:31;;;;;;;2.72;1.48;;;;;;;13.36;55.57;95171.56;4998864;28;20207;-65
2022/10/14 02:18:22;;;;;;;2.85;1.50;;;;;;;13.35;55.84;95175.22;5024230;28;20539;-64
2022/10/14 02:21:04;;;;;;;3.38;1.50;;;;;;;13.36;55.57;95170.75;5084178;28;20201;-63
2022/10/14 02:23:37;;;;;;;3.80;1.52;;;;;;;13.41;55.44;95179.00;5090401;28;20222;-64
2022/10/14 02:26:03;;;;;;;3.33;1.70;;;;;;;13.45;55.53;95185.63;5083878;28;20192;-64
2022/10/14 02:28:30;;;;;;;2.95;1.60;;;;;;;13.41;55.28;95177.19;5088749;28;20238;-64
2022/10/14 02:31:04;;;;;;;2.55;1.58;;;;;;;13.44;55.54;95163.69;5103281;28;20180;-63
2022/10/14 02:33:35;;;;;;;1.95;1.50;;;;;;;13.42;55.54;95170.13;5085120;28;20180;-62
2022/10/14 02:36:04;;;;;;;3.20;1.40;;;;;;;13.41;55.74;95168.44;5088364;28;20181;-63
2022/10/14 02:38:31;;;;;;;4.55;1.60;;;;;;;13.38;56.02;95168.78;5087732;28;20269;-64
2022/10/14 02:41:00;;;;;;;2.30;1.58;;;;;;;13.36;56.09;95157.56;5089734;28;20188;-64
2022/10/14 02:43:27;;;;;;;3.83;1.75;;;;;;;13.35;56.45;95159.38;5079952;28;20200;-64
2022/10/14 02:45:57;;;;;;;2.97;2.00;;;;;;;13.26;56.27;95170.94;5082577;28;20287;-64
2022/10/14 02:48:22;;;;;;;4.75;1.67;;;;;;;13.32;56.55;95158.88;5079042;28;20199;-64
2022/10/14 02:50:48;;;;;;;2.55;1.55;;;;;;;13.29;56.71;95154.75;5078078;28;20192;-64
2022/10/14 02:53:15;;;;;;;2.45;1.80;;;;;;;13.25;56.82;95159.50;5081045;28;20184;-63
2022/10/14 02:55:40;;;;;;;4.00;1.48;;;;;;;13.28;56.67;95147.81;5085885;28;20207;-63
2022/10/14 02:58:06;;;;;;;3.47;1.90;;;;;;;13.32;56.90;95159.72;5081836;28;20204;-63
2022/10/14 03:00:31;;;;;;;3.83;1.98;;;;;;;13.19;57.06;95152.25;5081722;28;20191;-63
2022/10/14 03:02:57;;;;;;;3.03;1.60;;;;;;;13.18;56.99;95140.03;5083348;28;20200;-62
2022/10/14 03:05:22;;;;;;;3.50;1.48;;;;;;;13.11;57.71;95146.13;5088511;28;20268;-63
2022/10/14 03:07:48;;;;;;;4.30;1.80;;;;;;;13.12;57.44;95143.31;5084675;28;20320;-63
2022/10/14 03:10:13;;;;;;;1.75;1.40;;;;;;;13.15;57.61;95136.88;5086846;28;20181;-62
2022/10/14 03:12:39;;;;;;;2.08;1.45;;;;;;;13.14;57.58;95146.63;5088735;28;20176;-63
2022/10/14 03:15:05;;;;;;;5.68;1.70;;;;;;;13.12;57.77;95145.97;5082449;28;20200;-64
2022/10/14 03:17:31;;;;;;;2.40;1.50;;;;;;;13.06;57.82;95143.97;5083937;28;20177;-64
2022/10/14 03:19:58;;;;;;;1.85;1.58;;;;;;;13.07;57.91;95144.81;5083076;28;20192;-64
2022/10/14 03:22:24;;;;;;;2.00;1.50;;;;;;;13.13;57.81;95141.53;5084205;28;20201;-65
2022/10/14 03:24:49;;;;;;;1.70;1.60;;;;;;;13.08;58.14;95139.38;5089369;28;20192;-64
2022/10/14 03:27:15;;;;;;;3.38;1.60;;;;;;;13.02;58.52;95135.56;5083409;28;20185;-63
2022/10/14 03:29:40;;;;;;;3.17;1.80;;;;;;;13.05;58.15;95130.97;5088499;28;20199;-63
2022/10/14 03:32:05;;;;;;;1.80;1.23;;;;;;;12.94;58.48;95132.09;5083944;28;20191;-63
2022/10/14 03:34:31;;;;;;;2.85;1.67;;;;;;;12.93;58.91;95135.72;5084785;28;20185;-63
2022/10/14 03:36:56;;;;;;;2.33;1.67;;;;;;;12.92;58.93;95131.44;5064080;28;20252;-64
2022/10/14 03:39:22;;;;;;;1.73;1.40;;;;;;;12.96;58.67;95145.94;5084621;28;20260;-63
2022/10/14 03:41:47;;;;;;;2.42;1.90;;;;;;;12.97;58.75;95139.69;5083035;28;20205;-63
2022/10/14 03:44:13;;;;;;;3.67;1.98;;;;;;;12.95;58.79;95145.13;5084624;28;20282;-63
2022/10/14 03:46:38;;;;;;;2.20;1.60;;;;;;;12.95;58.94;95152.22;5090082;28;20241;-63
2022/10/14 03:49:03;;;;;;;2.22;1.77;;;;;;;12.91;58.75;95137.69;5081689;28;20184;-63
2022/10/14 03:51:29;;;;;;;2.95;1.73;;;;;;;12.95;58.69;95137.22;5080790;28;20191;-64
2022/10/14 03:53:54;;;;;;;2.53;1.90;;;;;;;13.02;58.59;95147.94;5081075;28;20260;-64
2022/10/14 03:56:20;;;;;;;3.00;1.80;;;;;;;12.91;58.87;95137.69;5085124;28;20197;-64
2022/10/14 03:58:45;;;;;;;3.33;2.20;;;;;;;12.89;58.55;95131.78;5078423;28;20181;-64
2022/10/14 04:01:10;;;;;;;3.08;1.92;;;;;;;12.93;58.83;95136.53;5082114;28;20322;-63
2022/10/14 04:03:36;;;;;;;4.10;1.95;;;;;;;12.87;59.02;95129.28;5081224;28;20204;-65
2022/10/14 04:06:01;;;;;;;3.28;2.33;;;;;;;12.88;59.55;95138.03;5078914;28;20483;-64
2022/10/14 04:08:27;;;;;;;5.25;2.47;;;;;;;12.78;59.59;95136.38;5083981;28;20188;-64
2022/10/14 04:10:53;;;;;;;3.05;2.47;;;;;;;12.85;59.56;95133.06;5082570;28;20195;-64
2022/10/14 04:13:19;;;;;;;2.97;2.10;;;;;;;12.82;59.53;95126.31;5082809;28;20176;-64
2022/10/14 04:15:44;;;;;;;2.70;2.40;;;;;;;12.88;59.35;95135.38;5086998;28;20191;-64
2022/10/14 04:18:09;;;;;;;2.60;2.40;;;;;;;12.87;59.32;95129.28;5085697;28;20185;-63
2022/10/14 04:20:36;;;;;;;2.90;2.60;;;;;;;12.86;59.14;95119.72;5079939;28;20181;-63
2022/10/14 04:23:01;;;;;;;3.28;2.63;;;;;;;12.85;59.75;95127.78;5083681;28;20204;-64
2022/10/14 04:25:27;;;;;;;2.95;2.67;;;;;;;12.84;59.60;95115.59;5084480;28;20184;-64
2022/10/14 04:27:52;;;;;;;3.20;2.85;;;;;;;12.79;59.57;95111.63;5078605;28;20181;-65
2022/10/14 04:30:18;;;;;;;3.08;2.70;;;;;;;12.79;59.69;95116.91;5082360;28;20192;-63
2022/10/14 04:32:43;;;;;;;5.47;2.75;;;;;;;12.77;59.85;95118.88;5085272;28;20195;-64
2022/10/14 04:35:08;;;;;;;2.50;2.30;;;;;;;12.75;59.85;95112.94;5084628;28;20198;-63
2022/10/14 04:37:34;;;;;;;5.28;2.90;;;;;;;12.75;59.93;95115.59;5081338;28;20251;-64
2022/10/14 04:39:59;;;;;;;3.13;2.83;;;;;;;12.64;60.30;95107.13;5084122;28;20203;-64
2022/10/14 04:42:25;;;;;;;4.03;2.53;;;;;;;12.62;60.16;95102.03;5085036;28;20207;-67
2022/10/14 04:44:51;;;;;;;4.05;2.53;;;;;;;12.66;60.35;95111.28;5088195;28;20181;-65
2022/10/14 04:47:16;;;;;;;3.90;2.80;;;;;;;12.65;59.89;95112.28;5083104;28;20345;-66
2022/10/14 04:49:42;;;;;;;4.38;2.47;;;;;;;12.76;59.52;95114.59;5086541;28;20181;-65
2022/10/14 04:52:07;;;;;;;5.25;2.40;;;;;;;12.74;59.83;95107.81;5084009;28;20233;-65
2022/10/14 04:54:33;;;;;;;4.18;2.42;;;;;;;12.72;59.72;95094.81;5082533;28;20188;-64
2022/10/14 04:56:58;;;;;;;4.70;2.88;;;;;;;12.74;59.88;95100.72;5080668;28;20192;-65
2022/10/14 04:59:24;;;;;;;4.53;2.90;;;;;;;12.78;59.76;95094.16;5084157;28;20208;-63
2022/10/14 05:01:49;;;;;;;4.10;2.88;;;;;;;12.78;59.29;95099.44;5081324;28;20180;-65
2022/10/14 05:04:15;;;;;;;5.57;2.92;;;;;;;12.73;59.03;95100.91;5083991;28;20172;-63
2022/10/14 05:06:40;;;;;;;3.97;3.03;;;;;;;12.84;58.82;95099.75;5078193;28;20259;-65
2022/10/14 05:09:06;;;;;;;3.42;2.65;;;;;;;12.82;58.59;95107.00;5084393;28;20230;-63
2022/10/14 05:11:31;;;;;;;3.75;2.80;;;;;;;12.77;58.91;95097.75;5077479;28;20181;-64
2022/10/14 05:13:57;;;;;;;3.38;2.50;;;;;;;12.90;58.46;95101.75;5086767;28;20176;-64
2022/10/14 05:16:23;;;;;;;3.35;2.70;;;;;;;12.99;58.08;95100.75;5089330;28;20295;-63
2022/10/14 05:18:49;;;;;;;2.90;2.28;;;;;;;12.88;58.17;95090.50;5085625;28;20184;-65
2022/10/14 05:21:14;;;;;;;2.70;2.42;;;;;;;12.97;57.71;95098.28;5093910;28;20191;-65
2022/10/14 05:23:40;;;;;;;3.63;2.70;;;;;;;12.95;57.45;95094.16;5092391;28;20199;-64
2022/10/14 05:26:05;;;;;;;3.50;3.17;;;;;;;12.91;57.26;95098.94;5091524;28;20179;-64
2022/10/14 05:28:31;;;;;;;4.28;2.95;;;;;;;12.92;57.29;95097.13;5101583;28;20246;-64
2022/10/14 05:30:57;;;;;;;3.65;2.67;;;;;;;12.87;57.29;95096.78;5084415;28;20234;-64
2022/10/14 05:33:23;;;;;;;3.83;2.60;;;;;;;12.81;57.60;95093.00;5082286;28;20263;-64
2022/10/14 05:35:48;;;;;;;3.33;3.05;;;;;;;12.86;57.65;95095.97;5087489;28;20198;-64
2022/10/14 05:38:14;;;;;;;7.43;3.58;;;;;;;12.94;57.37;95105.72;5084572;28;20203;-65
2022/10/14 05:40:40;;;;;;;3.70;3.10;;;;;;;12.93;57.42;95104.03;5082673;28;20227;-65
2022/10/14 05:43:05;;;;;;;4.03;3.20;;;;;;;12.95;56.90;95104.72;5090306;28;20287;-64
2022/10/14 05:45:31;;;;;;;5.28;3.53;;;;;;;13.03;56.62;95108.19;5088654;28;20223;-64
2022/10/14 05:47:56;;;;;;;5.28;3.30;;;;;;;12.93;56.08;95106.69;5084968;28;20181;-66
2022/10/14 05:50:22;;;;;;;4.70;3.30;;;;;;;13.06;56.44;95114.94;5089960;28;20192;-65
2022/10/14 05:52:47;;;;;;;3.45;3.15;;;;;;;13.10;55.79;95110.19;5079612;28;21033;-69
2022/10/14 05:55:13;;;;;;;3.90;3.47;;;;;;;13.06;56.41;95122.03;5090752;28;20184;-67
2022/10/14 05:57:41;;;;;;;4.53;3.58;;;;;;;13.11;55.87;95119.75;5085286;28;20222;-67
2022/10/14 06:00:07;;;;;;;4.43;4.03;;;;;;;13.25;56.06;95117.25;5086296;28;20189;-68
2022/10/14 06:02:33;;;;;;;5.25;4.00;;;;;;;13.28;55.89;95133.78;5085769;28;20262;-66
2022/10/14 06:04:59;;;;;;;5.53;3.75;;;;;;;13.35;55.66;95132.97;5088959;28;20216;-67
2022/10/14 06:07:24;;;;;;;4.10;3.70;;;;;;;13.25;55.42;95125.16;5084824;28;20255;-66
2022/10/14 06:09:50;;;;;;;4.10;3.63;;;;;;;13.29;55.49;95135.47;5086055;28;20188;-67
2022/10/14 06:12:16;;;;;;;4.72;4.32;;;;;;;13.42;55.37;95130.50;5085496;28;20208;-68
2022/10/14 06:14:41;;;;;;;4.50;3.90;;;;;;;13.48;55.33;95132.47;5087493;28;20176;-67
2022/10/14 06:17:07;;;;;;;5.20;3.40;;;;;;;13.64;55.58;95142.19;5082877;28;20189;-68
2022/10/14 06:19:33;;;;;;;3.35;2.92;;;;;;;13.72;54.70;95136.88;5090604;28;20189;-67
2022/10/14 06:21:59;;;;;;;5.65;2.50;;;;;;;13.82;54.05;95137.53;5086094;28;20181;-66
2022/10/14 06:24:25;;;;;;;4.18;2.70;;;;;;;13.88;54.12;95134.22;5087920;28;20299;-69
2022/10/14 06:26:51;;;;;;;2.97;2.50;;;;;;;13.95;53.65;95139.63;5084560;28;20176;-68
2022/10/14 06:29:18;;;;;;;3.55;3.10;;;;;;;14.00;53.48;95132.00;5083994;28;20191;-68
2022/10/14 06:31:44;;;;;;;13.40;3.00;;;;;;;14.02;53.26;95129.22;5081939;28;20201;-67
2022/10/14 06:34:10;;;;;;;3.47;2.65;;;;;;;14.09;53.42;95157.44;5079448;28;20177;-66
2022/10/14 06:36:36;;;;;;;5.97;2.60;;;;;;;14.20;52.51;95147.50;5086688;28;20185;-66
2022/10/14 06:39:03;;;;;;;4.88;2.60;;;;;;;14.05;53.04;95155.31;5078704;28;20354;-66
2022/10/14 06:41:29;;;;;;;3.20;2.95;;;;;;;14.08;52.86;95150.50;5070267;28;20263;-66
2022/10/14 06:43:55;;;;;;;3.00;2.80;;;;;;;14.21;52.80;95147.31;5082800;28;20204;-66
2022/10/14 06:46:20;;;;;;;5.63;3.30;;;;;;;14.21;52.93;95143.84;5085380;28;20209;-66
2022/10/14 06:48:46;;;;;;;4.25;3.20;;;;;;;14.21;53.21;95143.84;5082077;28;20279;-66
2022/10/14 06:51:12;;;;;;;4.78;2.90;;;;;;;14.27;52.73;95143.16;5079989;28;20195;-66
2022/10/14 06:53:38;;;;;;;3.17;2.90;;;;;;;14.29;52.69;95147.28;5082020;28;20184;-66
2022/10/14 06:56:05;;;;;;;3.70;3.40;;;;;;;14.36;53.08;95143.97;5082150;28;20685;-66
2022/10/14 06:58:32;;;;;;;3.72;3.38;;;;;;;14.38;52.63;95137.53;5085461;28;20231;-66
2022/10/14 07:01:03;;;;;;;5.03;3.63;;;;;;;14.47;52.84;95144.41;5085215;28;20264;-64
2022/10/14 07:03:29;;;;;;;7.18;3.90;;;;;;;14.42;53.06;95141.47;5088756;28;20204;-65
2022/10/14 07:05:55;;;;;;;3.40;3.10;;;;;;;14.53;52.73;95135.81;5069409;28;20331;-66
2022/10/14 07:08:21;;;;;;;4.93;3.67;;;;;;;14.59;52.45;95139.56;5087524;28;20208;-65
2022/10/14 07:10:47;;;;;;;3.92;3.38;;;;;;;14.62;52.51;95133.13;5082065;28;20235;-66
2022/10/14 07:13:13;;;;;;;4.82;3.65;;;;;;;14.70;51.91;95127.78;5091503;28;20196;-66
2022/10/14 07:15:39;;;;;;;4.38;3.97;;;;;;;14.74;51.82;95134.38;5088558;28;20183;-65
2022/10/14 07:18:06;;;;;;;4.32;4.03;;;;;;;14.72;51.50;95136.38;5084610;28;20230;-67
2022/10/14 07:20:33;;;;;;;4.45;3.95;;;;;;;14.68;51.21;95141.19;5080073;28;20271;-66
2022/10/14 07:23:00;;;;;;;8.15;4.28;;;;;;;14.55;51.10;95141.75;5084681;28;20321;-67
2022/10/14 07:25:26;;;;;;;5.00;4.60;;;;;;;14.75;51.05;95142.16;5081043;28;20181;-66
2022/10/14 07:27:52;;;;;;;4.70;4.30;;;;;;;14.78;51.24;95141.81;5084240;28;20243;-66
2022/10/14 07:30:19;;;;;;;5.55;4.03;;;;;;;14.87;50.90;95125.88;5077388;28;20482;-66
2022/10/14 07:32:45;;;;;;;4.43;4.03;;;;;;;14.90;51.29;95136.94;5085844;28;20269;-66
2022/10/14 07:35:11;;;;;;;3.85;3.47;;;;;;;14.94;50.45;95140.03;5079224;28;20181;-66
2022/10/14 07:37:37;;;;;;;3.92;3.63;;;;;;;14.88;50.08;95133.63;5083964;28;20196;-64
2022/10/14 07:40:04;;;;;;;5.03;4.15;;;;;;;14.89;50.07;95132.66;5084342;28;20280;-67
2022/10/14 07:42:33;;;;;;;4.00;3.70;;;;;;;14.92;49.81;95129.63;5085750;28;20211;-65
2022/10/14 07:44:59;;;;;;;4.93;4.07;;;;;;;14.94;50.14;95125.00;5083057;28;20179;-65
2022/10/14 07:47:25;;;;;;;4.40;4.00;;;;;;;15.14;49.36;95132.47;5084448;28;20181;-64
2022/10/14 07:49:51;;;;;;;4.32;3.92;;;;;;;15.07;49.25;95128.88;5080967;28;20184;-65
2022/10/14 07:52:18;;;;;;;6.95;4.78;;;;;;;15.12;49.52;95135.28;5100086;28;20176;-66
2022/10/14 07:54:45;;;;;;;5.93;3.75;;;;;;;15.18;49.27;95136.41;5080776;28;20192;-67
2022/10/14 07:57:11;;;;;;;4.90;4.30;;;;;;;15.19;49.76;95133.59;5088061;28;20195;-65
2022/10/14 07:59:37;;;;;;;5.20;4.05;;;;;;;15.24;49.62;95135.72;5083329;28;20191;-65
2022/10/14 08:02:04;;;;;;;4.35;3.65;;;;;;;15.21;48.37;95126.28;5088379;28;20304;-64
2022/10/14 08:04:30;;;;;;;5.07;3.85;;;;;;;15.20;48.17;95129.91;5088432;28;20212;-66
2022/10/14 08:06:56;;;;;;;4.45;3.83;;;;;;;15.42;47.79;95133.56;5079799;28;20232;-65
2022/10/14 08:09:25;;;;;;;4.32;3.83;;;;;;;15.56;48.36;95124.00;5083565;28;20200;-65
2022/10/14 08:11:51;;;;;;;4.75;3.60;;;;;;;15.70;48.04;95130.38;5085868;28;20181;-65
2022/10/14 08:14:18;;;;;;;5.60;3.33;;;;;;;15.75;47.26;95128.00;5086773;28;20176;-65
2022/10/14 08:16:44;;;;;;;4.28;3.90;;;;;;;15.74;46.91;95130.81;5085242;28;20181;-65
2022/10/14 08:19:11;;;;;;;5.38;4.68;;;;;;;15.76;46.83;95134.94;5082056;28;20177;-66
2022/10/14 08:21:37;;;;;;;5.93;4.03;;;;;;;15.69;47.08;95130.53;5084769;28;20188;-66
2022/10/14 08:24:03;;;;;;;4.15;3.83;;;;;;;15.78;47.08;95138.25;5089606;28;20207;-66
2022/10/14 08:26:33;;;;;;;4.63;3.30;;;;;;;15.90;46.97;95140.44;5087150;28;20184;-65
2022/10/14 08:29:04;;;;;;;4.38;3.55;;;;;;;15.83;47.05;95133.22;5077587;28;20191;-65
2022/10/14 08:31:31;;;;;;;5.38;3.50;;;;;;;15.94;46.42;95131.94;5101722;28;20180;-65
2022/10/14 08:33:58;;;;;;;5.82;3.92;;;;;;;15.90;46.53;95141.25;5078508;28;20173;-65
2022/10/14 08:36:24;;;;;;;4.43;3.78;;;;;;;15.83;46.73;95122.63;5082853;28;20195;-64
2022/10/14 08:38:52;;;;;;;6.40;4.18;;;;;;;15.95;45.91;95133.59;5076185;28;20165;-65
2022/10/14 08:41:55;;;;;;;6.25;3.90;;;;;;;15.82;46.83;95130.72;5085899;28;20207;-65
2022/10/14 08:44:40;;;;;;;3.05;2.80;;;;;;;15.96;45.78;95126.44;5090506;28;20211;-65
2022/10/14 08:47:14;;;;;;;4.85;2.88;;;;;;;16.02;45.95;95131.84;5083693;28;20231;-65
2022/10/14 08:50:00;;;;;;;5.93;3.20;;;;;;;16.06;44.28;95137.59;5087011;28;20180;-65
2022/10/14 08:52:36;;;;;;;5.60;3.40;;;;;;;16.12;44.69;95136.91;5085887;28;20180;-64
2022/10/14 08:55:19;;;;;;;2.95;2.53;;;;;;;16.12;45.04;95139.56;5086941;28;20272;-66
2022/10/14 08:57:55;;;;;;;3.45;2.30;;;;;;;16.22;43.99;95137.44;5083455;28;20204;-65
2022/10/14 09:00:22;;;;;;;6.13;2.80;;;;;;;16.28;43.02;95135.91;5092246;28;20211;-65
2022/10/14 09:02:52;;;;;;;2.90;2.38;;;;;;;16.17;43.87;95131.03;5089083;28;20197;-66
2022/10/14 09:05:21;;;;;;;2.80;2.28;;;;;;;16.11;43.19;95137.88;5086445;28;20713;-65
2022/10/14 09:07:50;;;;;;;5.95;2.65;;;;;;;16.27;43.23;95132.41;5085592;28;20239;-66
2022/10/14 09:10:36;;;;;;;2.42;2.22;;;;;;;16.45;42.66;95133.84;5083173;28;20186;-65
2022/10/14 09:13:22;;;;;;;5.20;2.63;;;;;;;16.60;42.19;95137.31;5085293;28;20176;-65
2022/10/14 09:15:59;;;;;;;3.97;2.55;;;;;;;16.70;42.11;95132.50;5085401;28;20176;-65
2022/10/14 09:18:39;;;;;;;5.03;3.25;;;;;;;16.85;41.92;95129.03;5086940;28;20180;-65
2022/10/14 09:21:32;;;;;;;4.30;3.25;;;;;;;17.04;42.02;95133.75;5083493;28;20185;-66
2022/10/14 09:24:10;;;;;;;4.38;2.38;;;;;;;16.91;42.12;95121.13;5074836;28;20208;-66
2022/10/14 09:26:45;;;;;;;5.22;3.10;;;;;;;17.04;41.75;95123.13;5083084;28;20196;-66
2022/10/14 09:29:52;;;;;;;3.67;2.72;;;;;;;17.28;41.34;95127.22;5084024;28;20242;-65
2022/10/14 09:32:35;;;;;;;7.18;3.25;;;;;;;17.31;41.96;95128.69;5084461;28;20242;-66
2022/10/14 09:35:01;;;;;;;5.75;3.38;;;;;;;17.41;41.55;95122.03;5086638;28;20278;-66
2022/10/14 09:37:36;;;;;;;5.20;2.72;;;;;;;17.20;41.37;95117.53;5088429;28;20223;-67
2022/10/14 09:40:06;;;;;;;4.18;3.20;;;;;;;17.23;42.23;95123.50;5084990;28;20184;-65
2022/10/14 09:42:54;;;;;;;3.95;2.75;;;;;;;17.31;41.44;95116.22;5086465;28;20200;-65
2022/10/14 09:45:23;;;;;;;3.38;3.08;;;;;;;17.43;41.55;95113.88;5082730;28;20299;-66
2022/10/14 09:47:53;;;;;;;3.97;3.22;;;;;;;17.50;41.56;95117.38;5078571;28;20215;-65
2022/10/14 09:50:38;;;;;;;3.30;3.00;;;;;;;17.53;40.99;95111.69;5079810;28;20193;-65
2022/10/14 09:53:15;;;;;;;3.55;3.25;;;;;;;17.48;41.41;95130.06;5081144;28;20265;-64
2022/10/14 09:56:04;;;;;;;2.85;2.65;;;;;;;17.61;41.09;95119.56;5084002;28;20234;-65
2022/10/14 09:58:45;;;;;;;3.45;2.80;;;;;;;17.84;39.78;95124.66;5078249;28;20235;-65
2022/10/14 10:01:20;;;;;;;4.60;2.85;;;;;;;17.82;40.13;95116.03;5083959;28;20310;-65
2022/10/14 10:03:48;;;;;;;4.97;3.20;;;;;;;17.79;40.22;95120.91;5085987;28;20199;-64
2022/10/14 10:06:20;;;;;;;3.75;3.40;;;;;;;17.75;40.20;95119.63;5086142;28;20181;-65
2022/10/14 10:08:52;;;;;;;3.75;3.25;;;;;;;17.67;38.67;95102.00;5086638;28;20188;-66
2022/10/14 10:11:37;;;;;;;3.47;2.70;;;;;;;17.68;37.73;95105.47;5087941;28;20205;-66
2022/10/14 10:14:25;;;;;;;2.75;2.45;;;;;;;17.83;37.40;95122.19;5083199;28;20177;-66
2022/10/14 10:17:12;;;;;;;3.20;2.60;;;;;;;17.81;36.95;95113.59;5087579;28;20196;-65
2022/10/14 10:19:45;;;;;;;2.65;2.45;;;;;;;17.92;36.01;95109.56;5090914;28;20211;-64
2022/10/14 10:22:25;;;;;;;3.50;2.70;;;;;;;18.28;37.12;95112.00;5078864;28;20185;-66
2022/10/14 10:25:16;;;;;;;2.22;2.05;;;;;;;18.47;34.60;95108.63;5087407;28;20210;-65
2022/10/14 10:27:48;;;;;;;3.30;2.55;;;;;;;18.38;34.55;95090.34;5094635;28;20193;-65
2022/10/14 10:30:17;;;;;;;2.75;2.55;;;;;;;18.56;36.22;95105.81;5082188;28;20196;-64
2022/10/14 10:33:00;;;;;;;3.88;2.20;;;;;;;18.88;35.15;95099.78;5080042;28;20181;-65
2022/10/14 10:36:05;;;;;;;5.97;2.47;;;;;;;19.00;34.39;95086.69;5078725;28;20246;-65
2022/10/14 10:38:58;;;;;;;2.60;2.40;;;;;;;19.20;34.33;95093.91;5010863;28;20186;-65
2022/10/14 10:41:47;;;;;;;2.50;2.10;;;;;;;19.24;33.54;95087.94;5010041;28;20214;-65
2022/10/14 10:44:48;;;;;;;2.10;1.90;;;;;;;19.46;33.66;95085.09;5010181;28;20202;-65
2022/10/14 10:47:30;;;;;;;2.50;2.20;;;;;;;19.43;33.78;95077.50;5013389;28;20195;-66
2022/10/14 10:50:14;;;;;;;2.28;2.10;;;;;;;19.26;33.25;95069.09;5008469;28;20178;-66
2022/10/14 10:53:13;;;;;;;2.10;1.90;;;;;;;19.48;33.25;95083.84;5010204;28;20225;-66
2022/10/14 10:55:59;;;;;;;2.63;1.90;;;;;;;19.51;32.28;95077.28;5009162;28;20254;-66
2022/10/14 10:58:39;;;;;;;3.72;2.08;;;;;;;19.49;33.20;95074.03;5019513;28;20214;-66
2022/10/14 11:01:08;;;;;;;2.70;2.50;;;;;;;19.83;33.17;95075.66;5013498;28;20194;-66
2022/10/14 11:04:06;;;;;;;4.63;2.60;;;;;;;19.47;32.76;95071.56;5014252;28;20209;-64
2022/10/14 11:12:58;;;;;;;1.92;1.50;;;;;;;19.57;31.45;95052.47;5056742;28;20212;-64
2022/10/14 11:15:52;;;;;;;1.45;1.33;;;;;;;19.55;28.73;95057.19;5099021;28;20255;-65
2022/10/14 11:19:05;;;;;;;1.90;1.48;;;;;;;20.04;27.90;95055.91;5084566;28;20188;-67
2022/10/14 11:21:42;;;;;;;3.17;1.30;;;;;;;20.13;28.28;95049.31;5025486;28;20186;-66
2022/10/14 11:24:32;;;;;;;1.88;1.10;;;;;;;20.17;27.63;95045.19;5014070;28;20228;-65
2022/10/14 11:27:15;;;;;;;2.55;1.10;;;;;;;20.11;27.11;95040.69;5003347;28;20256;-63
2022/10/14 11:29:56;;;;;;;2.17;1.70;;;;;;;19.85;28.35;95040.78;5027824;28;20190;-65
2022/10/14 11:32:39;;;;;;;0.90;0.90;;;;;;;20.10;26.81;95025.72;5007300;28;20206;-64
2022/10/14 11:35:16;;;;;;;2.33;1.27;;;;;;;20.26;26.52;95024.41;5028185;28;20269;-64
2022/10/14 11:37:53;;;;;;;2.30;1.20;;;;;;;20.44;24.97;95024.53;4996612;28;20186;-64
2022/10/14 11:40:27;;;;;;;0.80;0.80;;;;;;;20.57;24.27;95015.69;5022999;28;20242;-64
2022/10/14 11:43:23;;;;;;;1.88;1.20;;;;;;;20.90;23.77;95023.50;5021835;28;20217;-64
2022/10/14 11:45:57;;;;;;;2.17;1.23;;;;;;;21.13;25.03;95016.75;5008243;28;20190;-63
2022/10/14 11:48:40;;;;;;;3.83;1.40;;;;;;;21.15;25.62;95006.66;5028167;28;20186;-63
2022/10/14 11:51:24;;;;;;;1.75;1.10;;;;;;;21.54;24.61;95013.59;5020354;28;20188;-64
2022/10/14 11:54:02;;;;;;;3.13;1.10;;;;;;;21.92;23.48;95003.72;5084344;28;20184;-62
2022/10/14 11:56:38;;;;;;;3.75;0.95;;;;;;;22.29;24.54;95015.25;5089171;28;20199;-63
2022/10/14 11:59:22;;;;;;;3.28;1.25;;;;;;;24.36;21.96;94996.72;5086296;28;20191;-63
2022/10/14 12:01:52;;;;;;;1.88;0.82;;;;;;;27.82;17.34;95004.44;5086317;28;20192;-62